createdAt,value
2022-08-11T00:02:35.448Z,53.62
2022-08-11T00:05:54.436Z,53.42
2022-08-11T00:09:02.049Z,53.60
2022-08-11T00:12:17.590Z,53.62
2022-08-11T00:15:26.154Z,54.57
2022-08-11T00:18:41.555Z,54.73
2022-08-11T00:22:04.752Z,54.55
2022-08-11T00:25:15.744Z,54.94
2022-08-11T00:28:31.094Z,54.43
2022-08-11T00:31:40.916Z,54.85
2022-08-11T00:34:50.863Z,54.24
2022-08-11T00:38:02.944Z,53.94
2022-08-11T00:41:26.906Z,53.98
2022-08-11T00:44:50.961Z,53.66
2022-08-11T00:48:10.118Z,53.03
2022-08-11T00:52:04.760Z,53.30
2022-08-11T00:55:56.612Z,53.38
2022-08-11T00:59:44.149Z,53.74
2022-08-11T01:03:22.596Z,53.77
2022-08-11T01:06:56.104Z,54.15
2022-08-11T01:10:47.426Z,54.33
2022-08-11T01:14:53.335Z,54.57
2022-08-11T01:18:52.184Z,54.44
2022-08-11T01:22:57.695Z,54.87
2022-08-11T01:27:18.967Z,54.88
2022-08-11T01:31:41.114Z,54.77
2022-08-11T01:35:39.619Z,54.96
2022-08-11T01:39:25.551Z,55.02
2022-08-11T01:43:32.761Z,54.58
2022-08-11T01:46:55.386Z,55.08
2022-08-11T01:50:22.741Z,54.84
2022-08-11T01:53:48.653Z,55.53
2022-08-11T01:57:19.641Z,55.72
2022-08-11T02:00:34.425Z,55.39
2022-08-11T02:03:58.131Z,55.45
2022-08-11T02:07:22.639Z,55.49
2022-08-11T02:10:57.432Z,55.05
2022-08-11T02:14:22.651Z,55.53
2022-08-11T02:17:56.857Z,55.38
2022-08-11T02:21:33.808Z,54.91
2022-08-11T02:24:56.488Z,54.69
2022-08-11T02:28:21.829Z,54.81
2022-08-11T02:32:24.025Z,54.22
2022-08-11T02:35:43.008Z,54.84
2022-08-11T02:39:03.558Z,54.89
2022-08-11T02:42:42.316Z,54.27
2022-08-11T02:46:17.963Z,54.48
2022-08-11T02:50:02.575Z,54.54
2022-08-11T02:53:29.827Z,54.57
2022-08-11T02:56:57.717Z,55.49
2022-08-11T03:00:24.284Z,55.22
2022-08-11T03:03:41.324Z,55.62
2022-08-11T03:07:02.142Z,56.30
2022-08-11T03:10:26.688Z,56.69
2022-08-11T03:13:57.558Z,56.72
2022-08-11T03:17:29.813Z,57.60
2022-08-11T03:20:54.429Z,58.45
2022-08-11T03:24:11.767Z,58.31
2022-08-11T03:27:42.368Z,59.09
2022-08-11T03:31:00.291Z,59.58
2022-08-11T03:34:16.761Z,60.03
2022-08-11T03:37:54.743Z,60.25
2022-08-11T03:42:03.144Z,60.02
2022-08-11T03:45:26.778Z,60.49
2022-08-11T03:48:52.242Z,60.84
2022-08-11T03:52:19.676Z,60.51
2022-08-11T03:56:25.638Z,60.52
2022-08-11T04:00:21.796Z,60.67
2022-08-11T04:04:21.688Z,60.23
2022-08-11T04:08:21.090Z,60.77
2022-08-11T04:12:34.748Z,60.36
2022-08-11T04:16:32.319Z,60.23
2022-08-11T04:20:26.911Z,60.12
2022-08-11T04:24:35.280Z,59.92
2022-08-11T04:28:31.346Z,58.87
2022-08-11T04:31:54.928Z,57.79
2022-08-11T04:35:27.853Z,55.75
2022-08-11T04:39:20.522Z,54.94
2022-08-11T04:43:25.453Z,52.90
2022-08-11T04:47:00.099Z,52.02
2022-08-11T04:50:42.465Z,50.29
2022-08-11T04:54:47.192Z,48.49
2022-08-11T04:58:31.354Z,47.55
2022-08-11T05:02:16.898Z,45.70
2022-08-11T05:05:56.241Z,44.55
2022-08-11T05:09:41.288Z,44.67
2022-08-11T05:12:56.599Z,44.25
2022-08-11T05:16:29.401Z,42.84
2022-08-11T05:19:47.752Z,42.26
2022-08-11T05:23:23.519Z,42.33
2022-08-11T05:27:00.177Z,40.59
2022-08-11T05:30:22.090Z,38.35
2022-08-11T05:33:51.691Z,36.69
2022-08-11T05:37:25.605Z,36.94
2022-08-11T05:40:51.190Z,37.13
2022-08-11T05:44:19.666Z,36.84
2022-08-11T05:47:46.938Z,37.09
2022-08-11T05:51:16.622Z,36.38
2022-08-11T05:54:36.807Z,35.81
2022-08-11T05:57:51.683Z,35.29
2022-08-11T06:01:12.274Z,35.04
2022-08-11T06:04:26.335Z,33.90
2022-08-11T06:07:47.216Z,33.48
2022-08-11T06:10:56.380Z,33.37
2022-08-11T06:14:08.066Z,32.64
2022-08-11T06:17:17.405Z,32.33
2022-08-11T06:20:32.919Z,32.49
2022-08-11T06:23:49.339Z,31.12
2022-08-11T06:27:14.061Z,30.72
2022-08-11T06:30:23.698Z,31.90
2022-08-11T06:33:50.668Z,32.32
2022-08-11T06:37:21.901Z,33.01
2022-08-11T06:40:44.888Z,34.91
2022-08-11T06:44:05.120Z,34.61
2022-08-11T06:47:15.014Z,33.60
2022-08-11T06:50:39.154Z,33.52
2022-08-11T06:54:03.333Z,33.32
2022-08-11T06:57:31.027Z,32.12
2022-08-11T07:00:39.709Z,32.75
2022-08-11T07:03:51.516Z,33.07
2022-08-11T07:08:34.734Z,33.56
2022-08-11T07:12:30.056Z,33.82
2022-08-11T07:16:10.668Z,34.11
2022-08-11T07:19:29.849Z,32.93
2022-08-11T07:22:54.905Z,32.23
2022-08-11T07:26:18.713Z,30.50
2022-08-11T07:29:27.072Z,31.70
2022-08-11T07:32:40.284Z,31.80
2022-08-11T07:35:53.536Z,30.83
2022-08-11T07:39:03.956Z,31.47
2022-08-11T07:42:16.406Z,31.13
2022-08-11T07:45:41.795Z,31.70
2022-08-11T07:49:00.299Z,30.58
2022-08-11T07:52:19.670Z,30.09
2022-08-11T07:55:50.280Z,29.19
2022-08-11T07:59:10.852Z,28.98
2022-08-11T08:02:32.472Z,29.28
2022-08-11T08:05:52.664Z,28.56
2022-08-11T08:09:14.023Z,28.65
2022-08-11T08:12:39.165Z,29.44
2022-08-11T08:16:01.039Z,30.91
2022-08-11T08:19:07.348Z,29.31
2022-08-11T08:22:38.168Z,29.74
2022-08-11T08:25:46.216Z,30.14
2022-08-11T08:28:55.355Z,30.67
2022-08-11T08:31:59.427Z,30.86
2022-08-11T08:35:09.302Z,30.67
2022-08-11T08:38:17.007Z,32.51
2022-08-11T08:41:31.416Z,33.43
2022-08-11T08:44:48.130Z,33.90
2022-08-11T08:48:03.434Z,33.78
2022-08-11T08:51:33.614Z,32.60
2022-08-11T08:55:01.391Z,32.54
2022-08-11T08:58:07.756Z,32.31
2022-08-11T09:01:22.591Z,33.22
2022-08-11T09:04:31.497Z,33.48
2022-08-11T09:07:41.114Z,33.70
2022-08-11T09:11:13.915Z,34.84
2022-08-11T09:14:21.096Z,34.12
2022-08-11T09:17:32.056Z,34.38
2022-08-11T09:20:41.641Z,33.62
2022-08-11T09:24:11.447Z,34.84
2022-08-11T09:27:24.967Z,34.74
2022-08-11T09:30:32.664Z,36.22
2022-08-11T09:33:47.219Z,35.82
2022-08-11T09:37:09.930Z,37.08
2022-08-11T09:40:33.926Z,33.22
2022-08-11T09:44:04.015Z,33.45
2022-08-11T09:47:15.710Z,33.20
2022-08-11T09:50:26.850Z,31.68
2022-08-11T09:53:40.869Z,33.26
2022-08-11T09:57:08.062Z,33.95
2022-08-11T10:00:18.709Z,34.22
2022-08-11T10:03:28.511Z,35.02
2022-08-11T10:06:55.499Z,34.32
2022-08-11T10:10:06.773Z,34.54
2022-08-11T10:14:30.248Z,33.67
2022-08-11T10:16:44.157Z,33.47
2022-08-11T10:20:04.756Z,33.59
2022-08-11T10:23:29.649Z,33.58
2022-08-11T10:26:49.611Z,32.93
2022-08-11T10:30:09.109Z,31.87
2022-08-11T10:33:37.590Z,32.44
2022-08-11T10:36:48.793Z,32.73
2022-08-11T10:39:59.843Z,33.30
2022-08-11T10:43:07.324Z,33.56
2022-08-11T10:46:29.897Z,33.00
2022-08-11T10:49:37.188Z,32.40
2022-08-11T10:52:57.373Z,32.43
2022-08-11T10:56:20.418Z,32.26
2022-08-11T10:59:31.080Z,32.20
2022-08-11T11:02:38.707Z,30.60
2022-08-11T11:06:12.726Z,30.71
2022-08-11T11:09:22.414Z,31.42
2022-08-11T11:12:53.905Z,31.64
2022-08-11T11:16:12.378Z,33.03
2022-08-11T11:19:26.475Z,32.32
2022-08-11T11:22:41.666Z,30.95
2022-08-11T11:26:27.061Z,31.11
2022-08-11T11:30:02.958Z,31.42
2022-08-11T11:33:23.382Z,30.70
2022-08-11T11:36:47.943Z,31.74
2022-08-11T11:39:57.727Z,31.17
2022-08-11T11:43:05.399Z,32.13
2022-08-11T11:46:14.170Z,30.10
2022-08-11T11:49:25.403Z,28.35
2022-08-11T11:52:32.727Z,28.96
2022-08-11T11:55:40.337Z,29.00
2022-08-11T11:58:59.951Z,28.58
2022-08-11T12:02:11.939Z,27.17
2022-08-11T12:05:18.817Z,26.86
2022-08-11T12:08:28.653Z,26.22
2022-08-11T12:11:50.756Z,25.77
2022-08-11T12:14:58.698Z,25.89
2022-08-11T12:18:08.974Z,25.41
2022-08-11T12:21:19.019Z,26.12
2022-08-11T12:24:38.596Z,26.91
2022-08-11T12:27:45.075Z,27.74
2022-08-11T12:30:54.220Z,28.93
2022-08-11T12:34:09.016Z,28.57
2022-08-11T12:37:19.461Z,29.35
2022-08-11T12:41:12.121Z,30.26
2022-08-11T12:44:26.450Z,27.19
2022-08-11T12:48:13.986Z,26.98
2022-08-11T12:52:12.417Z,27.53
2022-08-11T12:55:41.034Z,28.78
2022-08-11T12:58:52.091Z,30.49
2022-08-11T13:02:11.142Z,31.61
2022-08-11T13:05:19.591Z,31.99
2022-08-11T13:08:32.368Z,31.12
2022-08-11T13:11:56.065Z,31.19
2022-08-11T13:15:06.065Z,30.88
2022-08-11T13:18:13.898Z,30.54
2022-08-11T13:21:21.660Z,29.49
2022-08-11T13:24:34.262Z,28.85
2022-08-11T13:27:40.387Z,28.48
2022-08-11T13:30:59.397Z,28.17
2022-08-11T13:34:09.085Z,27.96
2022-08-11T13:37:19.517Z,27.42
2022-08-11T13:40:56.020Z,27.56
2022-08-11T13:44:03.835Z,28.04
2022-08-11T13:47:16.198Z,28.22
2022-08-11T13:50:22.298Z,29.33
2022-08-11T13:53:32.885Z,29.32
2022-08-11T13:56:46.998Z,29.88
2022-08-11T14:00:13.194Z,30.29
2022-08-11T14:04:30.270Z,29.32
2022-08-11T14:07:01.632Z,28.82
2022-08-11T14:10:12.894Z,28.56
2022-08-11T14:13:42.730Z,31.13
2022-08-11T14:17:00.487Z,39.52
2022-08-11T14:20:35.497Z,41.52
2022-08-11T14:23:45.182Z,43.09
2022-08-11T14:26:59.045Z,45.18
2022-08-11T14:30:30.003Z,46.90
2022-08-11T14:34:00.446Z,49.74
2022-08-11T14:37:11.307Z,51.64
2022-08-11T14:40:48.016Z,54.67
2022-08-11T14:44:14.868Z,57.86
2022-08-11T14:47:26.402Z,59.20
2022-08-11T14:50:36.737Z,60.83
2022-08-11T14:53:58.564Z,62.61
2022-08-11T14:57:03.550Z,63.48
2022-08-11T15:00:16.517Z,63.45
2022-08-11T15:03:28.717Z,63.04
2022-08-11T15:06:36.114Z,63.05
2022-08-11T15:13:11.294Z,65.05
2022-08-11T15:16:29.337Z,65.45
2022-08-11T15:20:02.241Z,65.00
2022-08-11T15:23:33.981Z,65.10
2022-08-11T15:26:57.410Z,65.16
2022-08-11T15:30:35.921Z,66.11
2022-08-11T15:34:04.880Z,65.15
2022-08-11T15:37:34.047Z,64.55
2022-08-11T15:40:57.455Z,63.33
2022-08-11T15:44:58.779Z,63.77
2022-08-11T15:48:06.266Z,64.68
2022-08-11T15:51:29.653Z,64.08
2022-08-11T15:54:46.591Z,62.85
2022-08-11T15:58:15.643Z,61.99
2022-08-11T16:01:46.118Z,61.03
2022-08-11T16:04:54.656Z,59.90
2022-08-11T16:08:02.789Z,59.23
2022-08-11T16:11:28.373Z,59.17
2022-08-11T16:15:00.157Z,59.28
2022-08-11T16:18:24.480Z,58.57
2022-08-11T16:21:43.174Z,58.47
2022-08-11T16:27:02.078Z,58.85
2022-08-11T16:28:41.492Z,57.99
2022-08-11T16:32:10.560Z,58.34
2022-08-11T16:35:35.111Z,59.07
2022-08-11T16:38:44.272Z,58.04
2022-08-11T16:42:05.411Z,57.81
2022-08-11T16:45:26.848Z,57.79
2022-08-11T16:48:39.563Z,59.34
2022-08-11T16:51:45.939Z,59.31
2022-08-11T16:54:52.694Z,58.16
2022-08-11T16:58:12.660Z,58.16
2022-08-11T17:01:25.844Z,58.51
2022-08-11T17:04:53.932Z,57.82
2022-08-11T17:08:25.023Z,57.30
2022-08-11T17:11:56.516Z,57.50
2022-08-11T17:15:29.319Z,56.17
2022-08-11T17:18:48.698Z,55.59
2022-08-11T17:22:09.548Z,55.22
2022-08-11T17:25:25.156Z,55.44
2022-08-11T17:28:34.673Z,55.37
2022-08-11T17:31:53.149Z,55.91
2022-08-11T17:35:31.691Z,55.83
2022-08-11T17:38:43.077Z,56.27
2022-08-11T17:42:02.167Z,56.67
2022-08-11T17:45:24.354Z,56.36
2022-08-11T17:48:35.072Z,56.34
2022-08-11T17:52:01.112Z,57.08
2022-08-11T17:55:52.452Z,56.70
2022-08-11T17:59:14.606Z,56.95
2022-08-11T18:02:44.690Z,57.33
2022-08-11T18:05:52.352Z,57.13
2022-08-11T18:09:16.633Z,57.93
2022-08-11T18:12:34.795Z,57.97
2022-08-11T18:15:56.617Z,58.48
2022-08-11T18:19:15.792Z,58.04
2022-08-11T18:22:48.696Z,58.37
2022-08-11T18:26:20.985Z,59.12
2022-08-11T18:29:44.458Z,59.36
2022-08-11T18:33:45.236Z,59.49
2022-08-11T18:36:55.905Z,60.28
2022-08-11T18:40:29.873Z,60.57
2022-08-11T18:44:05.111Z,60.65
2022-08-11T18:47:34.130Z,61.22
2022-08-11T18:51:31.466Z,61.26
2022-08-11T18:55:06.234Z,61.59
2022-08-11T18:58:40.367Z,61.22
2022-08-11T19:02:03.893Z,61.98
2022-08-11T19:06:06.154Z,62.30
2022-08-11T19:09:18.777Z,62.77
2022-08-11T19:12:46.219Z,63.99
2022-08-11T19:16:06.102Z,64.98
2022-08-11T19:19:31.214Z,65.20
2022-08-11T19:22:55.009Z,66.01
2022-08-11T19:26:17.103Z,65.99
2022-08-11T19:30:07.385Z,65.96
2022-08-11T19:34:00.266Z,65.13
2022-08-11T19:37:23.551Z,64.92
2022-08-11T19:41:18.454Z,65.24
2022-08-11T19:44:59.676Z,65.49
2022-08-11T19:48:32.149Z,65.79
2022-08-11T19:51:54.500Z,65.76
2022-08-11T19:55:33.040Z,65.94
2022-08-11T19:58:54.900Z,66.11
2022-08-11T20:02:14.709Z,65.79
2022-08-11T20:05:39.822Z,65.96
2022-08-11T20:09:17.632Z,66.59
2022-08-11T20:12:44.202Z,66.21
2022-08-11T20:16:03.791Z,67.05
2022-08-11T20:19:56.644Z,66.46
2022-08-11T20:23:23.759Z,66.65
2022-08-11T20:26:48.341Z,66.42
2022-08-11T20:30:19.818Z,66.51
2022-08-11T20:33:43.370Z,67.00
2022-08-11T20:37:07.298Z,67.10
2022-08-11T20:40:29.223Z,67.89
2022-08-11T20:44:07.573Z,67.91
2022-08-11T20:47:32.696Z,67.96
2022-08-11T20:51:23.058Z,68.55
2022-08-11T20:54:51.800Z,68.87
2022-08-11T20:58:47.948Z,68.59
2022-08-11T21:02:09.631Z,69.02
2022-08-11T21:06:08.934Z,68.99
2022-08-11T21:09:23.840Z,69.30
2022-08-11T21:12:50.810Z,69.47
2022-08-11T21:16:25.201Z,69.53
2022-08-11T21:20:00.033Z,69.67
2022-08-11T21:23:30.892Z,70.01
2022-08-11T21:27:01.540Z,70.25
2022-08-11T21:30:24.011Z,69.53
2022-08-11T21:33:47.249Z,69.91
2022-08-11T21:37:08.403Z,69.74
2022-08-11T21:40:34.460Z,69.52
2022-08-11T21:43:57.765Z,69.36
2022-08-11T21:47:42.419Z,69.61
2022-08-11T21:50:57.813Z,69.52
2022-08-11T21:54:17.766Z,69.31
2022-08-11T21:57:48.029Z,69.19
2022-08-11T22:01:09.973Z,69.56
2022-08-11T22:04:29.987Z,69.45
2022-08-11T22:07:48.800Z,69.25
2022-08-11T22:11:07.476Z,69.37
2022-08-11T22:14:28.945Z,69.69
2022-08-11T22:17:46.990Z,69.94
2022-08-11T22:21:07.574Z,69.98
2022-08-11T22:24:30.257Z,70.26
2022-08-11T22:27:49.379Z,69.48
2022-08-11T22:31:13.536Z,69.97
2022-08-11T22:34:34.084Z,69.94
2022-08-11T22:38:01.778Z,69.53
2022-08-11T22:41:20.119Z,69.74
2022-08-11T22:44:38.206Z,70.09
2022-08-11T22:48:02.956Z,70.02
2022-08-11T22:51:22.136Z,70.03
2022-08-11T22:54:41.993Z,70.02
2022-08-11T22:58:02.981Z,70.17
2022-08-11T23:01:22.118Z,69.88
2022-08-11T23:04:45.637Z,69.79
2022-08-11T23:08:13.796Z,70.14
2022-08-11T23:12:02.469Z,70.34
2022-08-11T23:15:12.675Z,70.46
2022-08-11T23:18:32.279Z,70.50
2022-08-11T23:21:57.609Z,70.54
2022-08-11T23:25:17.873Z,70.48
2022-08-11T23:28:39.584Z,70.53
2022-08-11T23:31:59.524Z,70.03
2022-08-11T23:35:39.186Z,70.71
2022-08-11T23:39:01.550Z,70.54
2022-08-11T23:42:24.948Z,70.93
2022-08-11T23:45:43.204Z,70.80
2022-08-11T23:49:14.880Z,71.36
2022-08-11T23:52:52.459Z,71.83
2022-08-11T23:56:13.753Z,72.47
2022-08-11T23:59:39.865Z,72.41
